createdAt,value
2022-08-03T00:03:34.929Z,56.37
2022-08-03T00:08:37.656Z,58.23
2022-08-03T00:13:42.567Z,59.70
2022-08-03T00:18:44.776Z,69.31
2022-08-03T00:23:51.184Z,63.62
2022-08-03T00:28:54.058Z,55.48
2022-08-03T00:33:59.643Z,54.33
2022-08-03T00:39:05.064Z,56.46
2022-08-03T00:44:06.943Z,58.82
2022-08-03T00:49:08.900Z,67.92
2022-08-03T00:54:11.115Z,62.84
2022-08-03T00:59:15.897Z,54.83
2022-08-03T01:04:17.726Z,54.01
2022-08-03T01:09:49.838Z,56.55
2022-08-03T01:15:05.816Z,58.61
2022-08-03T01:20:13.331Z,68.50
2022-08-03T01:26:10.190Z,64.53
2022-08-03T01:31:18.391Z,53.62
2022-08-03T01:36:24.736Z,54.43
2022-08-03T01:41:33.499Z,56.10
2022-08-03T01:46:37.265Z,60.67
2022-08-03T01:51:58.642Z,70.48
2022-08-03T01:57:07.550Z,66.27
2022-08-03T02:02:27.704Z,55.81
2022-08-03T02:07:39.445Z,54.72
2022-08-03T02:12:46.009Z,58.10
2022-08-03T02:17:50.063Z,67.55
2022-08-03T02:22:52.150Z,64.71
2022-08-03T02:28:13.688Z,55.04
2022-08-03T02:33:28.162Z,54.37
2022-08-03T02:38:38.403Z,57.55
2022-08-03T02:44:00.352Z,60.03
2022-08-03T02:49:40.848Z,69.42
2022-08-03T02:54:30.200Z,64.23
2022-08-03T02:59:32.649Z,54.07
2022-08-03T03:04:36.046Z,54.13
2022-08-03T03:09:40.409Z,55.67
2022-08-03T03:14:45.844Z,57.70
2022-08-03T03:19:51.901Z,59.88
2022-08-03T03:24:55.917Z,69.87
2022-08-03T03:29:58.240Z,65.00
2022-08-03T03:35:01.559Z,54.82
2022-08-03T03:40:04.756Z,54.10
2022-08-03T03:45:08.279Z,55.93
2022-08-03T03:50:10.790Z,58.50
2022-08-03T03:55:17.626Z,68.45
2022-08-03T04:00:19.644Z,63.37
2022-08-03T04:05:44.247Z,54.59
2022-08-03T04:11:14.521Z,53.38
2022-08-03T04:16:21.894Z,56.19
2022-08-03T04:21:25.541Z,59.36
2022-08-03T04:26:33.804Z,68.04
2022-08-03T04:31:38.060Z,63.88
2022-08-03T04:36:49.900Z,57.21
2022-08-03T04:42:07.312Z,53.42
2022-08-03T04:47:10.551Z,55.40
2022-08-03T04:52:13.105Z,58.69
2022-08-03T04:57:22.269Z,64.96
2022-08-03T05:02:25.487Z,62.20
2022-08-03T05:07:36.191Z,54.15
2022-08-03T05:12:39.480Z,53.19
2022-08-03T05:17:41.592Z,56.89
2022-08-03T05:22:43.643Z,58.47
2022-08-03T05:27:45.629Z,66.51
2022-08-03T05:32:47.748Z,60.00
2022-08-03T05:37:54.398Z,53.12
2022-08-03T05:42:57.103Z,53.99
2022-08-03T05:48:00.102Z,56.35
2022-08-03T05:53:02.930Z,57.22
2022-08-03T05:58:05.182Z,57.88
2022-08-03T06:03:07.171Z,58.18
2022-08-03T06:08:09.066Z,58.02
2022-08-03T06:13:11.030Z,58.99
2022-08-03T06:18:13.099Z,59.22
2022-08-03T06:23:15.290Z,59.76
2022-08-03T06:28:51.396Z,59.50
2022-08-03T06:34:30.782Z,59.67
2022-08-03T06:39:04.987Z,60.71
2022-08-03T06:44:06.830Z,64.19
2022-08-03T06:49:08.972Z,64.75
2022-08-03T06:54:12.014Z,51.97
2022-08-03T07:00:10.527Z,50.34
2022-08-03T07:04:35.941Z,50.86
2022-08-03T07:09:37.837Z,51.51
2022-08-03T07:14:39.701Z,52.97
2022-08-03T07:19:41.680Z,53.79
2022-08-03T07:24:44.487Z,54.51
2022-08-03T07:29:46.455Z,54.90
2022-08-03T07:34:48.227Z,54.53
2022-08-03T07:39:50.114Z,53.18
2022-08-03T07:44:51.982Z,52.28
2022-08-03T07:49:54.685Z,51.55
2022-08-03T07:54:56.566Z,50.55
2022-08-03T08:00:02.209Z,49.98
2022-08-03T08:05:06.177Z,48.85
2022-08-03T08:10:10.237Z,48.56
2022-08-03T08:15:12.873Z,48.09
2022-08-03T08:20:31.722Z,48.11
2022-08-03T08:25:34.860Z,47.56
2022-08-03T08:30:36.753Z,47.57
2022-08-03T08:35:38.717Z,47.52
2022-08-03T08:40:41.002Z,47.76
2022-08-03T08:45:44.991Z,47.98
2022-08-03T08:50:48.142Z,47.51
2022-08-03T08:55:56.952Z,46.95
2022-08-03T09:01:02.823Z,47.12
2022-08-03T09:06:05.135Z,46.61
2022-08-03T09:11:07.459Z,45.22
2022-08-03T09:16:20.576Z,44.94
2022-08-03T09:21:32.792Z,45.11
2022-08-03T09:26:38.056Z,44.63
2022-08-03T09:31:46.110Z,44.29
2022-08-03T09:36:53.492Z,43.43
2022-08-03T09:42:07.091Z,42.56
2022-08-03T09:47:16.186Z,42.00
2022-08-03T09:52:38.613Z,41.59
2022-08-03T09:57:45.937Z,41.27
2022-08-03T10:02:50.264Z,39.99
2022-08-03T10:07:52.135Z,39.66
2022-08-03T10:12:54.257Z,40.10
2022-08-03T10:17:56.968Z,39.19
2022-08-03T10:23:00.124Z,37.62
2022-08-03T10:28:04.394Z,40.00
2022-08-03T10:33:49.744Z,38.59
2022-08-03T10:38:57.570Z,38.10
2022-08-03T10:44:09.229Z,37.73
2022-08-03T10:49:21.439Z,38.42
2022-08-03T10:54:36.901Z,38.78
2022-08-03T10:59:50.652Z,37.03
2022-08-03T11:05:34.619Z,37.73
2022-08-03T11:10:38.235Z,38.85
2022-08-03T11:15:45.700Z,38.49
2022-08-03T11:20:57.409Z,38.76
2022-08-03T11:26:19.086Z,39.37
2022-08-03T11:31:48.755Z,38.79
2022-08-03T11:37:25.223Z,38.65
2022-08-03T11:42:29.243Z,36.76
2022-08-03T11:47:31.116Z,36.92
2022-08-03T11:52:39.948Z,36.65
2022-08-03T11:59:02.706Z,35.26
2022-08-03T12:03:13.656Z,34.52
2022-08-03T12:08:27.898Z,33.45
2022-08-03T12:14:45.437Z,33.38
2022-08-03T12:19:12.900Z,34.25
2022-08-03T12:24:15.409Z,35.25
2022-08-03T12:29:22.744Z,34.17
2022-08-03T12:34:47.020Z,34.30
2022-08-03T12:40:01.722Z,32.69
2022-08-03T12:45:28.543Z,33.19
2022-08-03T12:50:37.094Z,32.20
2022-08-03T12:56:04.729Z,33.58
2022-08-03T13:01:09.517Z,33.28
2022-08-03T13:06:19.908Z,31.78
2022-08-03T13:11:57.341Z,30.60
2022-08-03T13:16:49.751Z,31.21
2022-08-03T13:22:03.071Z,31.09
2022-08-03T13:27:59.417Z,30.17
2022-08-03T13:32:29.781Z,29.49
2022-08-03T13:37:32.112Z,28.77
2022-08-03T13:42:35.967Z,29.17
2022-08-03T13:47:37.899Z,29.28
2022-08-03T13:52:39.738Z,29.16
2022-08-03T13:58:04.905Z,29.17
2022-08-03T14:03:17.598Z,29.63
2022-08-03T14:08:19.577Z,29.68
2022-08-03T14:13:22.275Z,30.79
2022-08-03T14:18:28.346Z,29.91
2022-08-03T14:23:39.373Z,29.30
2022-08-03T14:28:41.533Z,28.02
2022-08-03T14:33:43.712Z,28.64
2022-08-03T14:38:46.013Z,28.50
2022-08-03T14:44:01.643Z,27.72
2022-08-03T14:50:36.977Z,27.95
2022-08-03T14:54:30.540Z,28.03
2022-08-03T14:59:56.207Z,28.38
2022-08-03T15:04:54.471Z,27.79
2022-08-03T15:09:56.452Z,27.93
2022-08-03T15:14:58.322Z,28.09
2022-08-03T15:20:26.504Z,27.37
2022-08-03T15:26:30.239Z,27.76
2022-08-03T15:30:44.095Z,27.74
2022-08-03T15:35:47.104Z,27.39
2022-08-03T15:40:49.082Z,27.20
2022-08-03T15:46:18.972Z,26.38
2022-08-03T15:51:13.825Z,26.47
2022-08-03T15:56:18.717Z,26.93
2022-08-03T16:01:24.731Z,26.56
2022-08-03T16:06:29.797Z,27.11
2022-08-03T16:11:37.833Z,27.29
2022-08-03T16:16:40.729Z,26.52
2022-08-03T16:21:48.394Z,26.67
2022-08-03T16:26:50.931Z,26.66
2022-08-03T16:31:53.011Z,26.28
2022-08-03T16:36:55.017Z,25.87
2022-08-03T16:42:00.927Z,26.39
2022-08-03T16:47:04.300Z,27.08
2022-08-03T16:52:07.319Z,27.52
2022-08-03T16:57:09.484Z,27.79
2022-08-03T17:02:26.147Z,27.40
2022-08-03T17:07:29.701Z,28.62
2022-08-03T17:12:32.404Z,28.52
2022-08-03T17:17:53.547Z,27.43
2022-08-03T17:23:33.862Z,28.30
2022-08-03T17:28:56.469Z,28.28
2022-08-03T17:34:04.625Z,29.13
2022-08-03T17:39:09.025Z,30.02
2022-08-03T17:44:15.308Z,34.47
2022-08-03T17:49:23.764Z,35.42
2022-08-03T17:55:56.042Z,35.98
2022-08-03T18:01:04.789Z,37.91
2022-08-03T18:06:34.936Z,37.75
2022-08-03T18:11:45.293Z,38.09
2022-08-03T18:16:57.525Z,39.14
2022-08-03T18:22:04.466Z,38.89
2022-08-03T18:27:10.216Z,39.66
2022-08-03T18:32:16.912Z,40.65
2022-08-03T18:37:26.013Z,41.31
2022-08-03T18:42:28.286Z,42.40
2022-08-03T18:47:56.721Z,42.65
2022-08-03T18:54:02.309Z,43.60
2022-08-03T18:59:30.125Z,43.92
2022-08-03T19:04:38.718Z,44.74
2022-08-03T19:10:05.746Z,45.29
2022-08-03T19:15:13.240Z,45.87
2022-08-03T19:20:20.612Z,46.54
2022-08-03T19:25:34.467Z,47.10
2022-08-03T19:30:39.528Z,47.34
2022-08-03T19:35:55.795Z,48.06
2022-08-03T19:41:05.233Z,48.40
2022-08-03T19:46:13.583Z,48.64
2022-08-03T19:51:16.620Z,49.35
2022-08-03T19:56:23.679Z,49.23
2022-08-03T20:01:28.944Z,49.88
2022-08-03T20:06:31.666Z,50.78
2022-08-03T20:11:43.910Z,50.90
2022-08-03T20:16:48.821Z,51.61
2022-08-03T20:21:54.376Z,51.75
2022-08-03T20:27:05.196Z,52.16
2022-08-03T20:32:10.015Z,52.58
2022-08-03T20:37:12.291Z,53.23
2022-08-03T20:42:14.303Z,53.84
2022-08-03T20:47:24.692Z,54.67
2022-08-03T20:52:29.042Z,55.26
2022-08-03T20:57:33.183Z,55.91
2022-08-03T21:02:35.966Z,56.31
2022-08-03T21:07:45.721Z,56.59
2022-08-03T21:13:23.198Z,56.33
2022-08-03T21:18:27.631Z,57.32
2022-08-03T21:23:47.558Z,57.17
2022-08-03T21:28:55.881Z,57.53
2022-08-03T21:34:04.706Z,58.16
2022-08-03T21:39:10.439Z,58.67
2022-08-03T21:44:12.548Z,59.54
2022-08-03T21:50:05.268Z,59.77
2022-08-03T21:54:41.760Z,59.89
2022-08-03T21:59:56.679Z,60.51
2022-08-03T22:04:58.907Z,60.59
2022-08-03T22:10:06.074Z,60.94
2022-08-03T22:15:11.880Z,60.26
2022-08-03T22:20:14.912Z,61.66
2022-08-03T22:25:17.041Z,69.63
2022-08-03T22:30:20.172Z,64.18
2022-08-03T22:35:25.389Z,55.22
2022-08-03T22:40:28.292Z,55.46
2022-08-03T22:46:09.888Z,56.14
2022-08-03T22:50:52.929Z,57.22
2022-08-03T22:55:56.264Z,59.16
2022-08-03T23:01:05.690Z,60.51
2022-08-03T23:06:09.335Z,61.35
2022-08-03T23:11:12.315Z,69.16
2022-08-03T23:16:27.956Z,65.69
2022-08-03T23:21:53.198Z,54.46
2022-08-03T23:26:56.765Z,53.16
2022-08-03T23:32:01.821Z,55.13
2022-08-03T23:37:05.637Z,57.62
2022-08-03T23:42:09.626Z,59.44
2022-08-03T23:47:13.675Z,60.41
2022-08-03T23:52:57.399Z,69.09
2022-08-03T23:58:12.148Z,62.91
